Time;durP1;ratioP1;P1;durP2;ratioP2;P2;SDS_P1;SDS_P2;PMS_P1;PMS_P2;Temp;Humidity;BMP_temperature;BMP_pressure;BME280_temperature;BME280_humidity;BME280_pressure;Samples;Min_cycle;Max_cycle;Signal;HPM_P1;HPM_P2
2023/04/07 00:01:31;;;;;;;7.80;7.10;;;8.60;99.90;;;;;;5096081;28;20843;-47
2023/04/07 00:03:57;;;;;;;8.27;7.43;;;8.60;99.90;;;;;;5095868;28;20252;-46
2023/04/07 00:06:23;;;;;;;8.70;7.80;;;8.60;99.90;;;;;;5098307;28;20263;-44
2023/04/07 00:08:48;;;;;;;8.83;7.97;;;8.60;99.90;;;;;;5097162;28;20192;-45
2023/04/07 00:11:14;;;;;;;8.40;7.60;;;8.60;99.90;;;;;;5096863;28;20184;-44
2023/04/07 00:13:39;;;;;;;9.30;7.67;;;8.60;99.90;;;;;;5095676;28;20192;-46
2023/04/07 00:16:05;;;;;;;7.90;7.10;;;8.60;99.90;;;;;;5094797;28;20210;-44
2023/04/07 00:18:31;;;;;;;8.53;7.63;;;8.50;99.90;;;;;;5095621;28;20192;-48
2023/04/07 00:20:56;;;;;;;9.33;8.20;;;8.60;99.90;;;;;;5095402;28;20267;-45
2023/04/07 00:23:22;;;;;;;9.00;8.10;;;8.60;99.90;;;;;;5095088;28;20538;-46
2023/04/07 00:25:48;;;;;;;8.90;8.00;;;8.60;99.90;;;;;;5095897;28;20569;-47
2023/04/07 00:28:14;;;;;;;11.07;9.33;;;8.60;99.90;;;;;;5095474;28;20188;-43
2023/04/07 00:30:40;;;;;;;8.97;7.87;;;8.60;99.90;;;;;;5094755;28;20497;-44
2023/04/07 00:33:05;;;;;;;11.50;9.47;;;8.50;99.90;;;;;;5096671;28;20188;-45
2023/04/07 00:35:31;;;;;;;9.27;8.30;;;8.50;99.90;;;;;;5097329;28;20622;-46
2023/04/07 00:37:57;;;;;;;9.17;8.27;;;8.50;1.00;;;;;;5097263;28;20181;-47
2023/04/07 00:40:22;;;;;;;9.73;8.70;;;8.40;1.00;;;;;;5096834;28;20199;-45
2023/04/07 00:42:48;;;;;;;9.40;8.50;;;8.50;1.00;;;;;;5096898;28;20230;-44
2023/04/07 00:45:14;;;;;;;10.70;8.30;;;8.40;1.00;;;;;;5097079;28;20510;-50
2023/04/07 00:47:40;;;;;;;10.40;9.20;;;8.50;1.00;;;;;;5097447;28;20200;-46
2023/04/07 00:50:06;;;;;;;10.87;9.07;;;8.40;1.00;;;;;;5095964;28;20514;-48
2023/04/07 00:52:33;;;;;;;7.60;6.90;;;8.40;1.00;;;;;;5096374;28;20848;-44
2023/04/07 00:54:59;;;;;;;9.47;7.90;;;8.40;1.00;;;;;;5096591;28;20458;-46
2023/04/07 00:57:25;;;;;;;9.00;8.07;;;8.40;99.90;;;;;;5095985;28;20491;-46
2023/04/07 00:59:54;;;;;;;10.20;8.00;;;8.40;99.90;;;;;;5096853;28;20414;-43
2023/04/07 01:02:26;;;;;;;8.63;7.77;;;8.50;99.90;;;;;;5095572;28;20430;-48
2023/04/07 01:05:44;;;;;;;10.83;8.13;;;8.50;99.90;;;;;;5096062;28;20506;-45
2023/04/07 01:08:28;;;;;;;8.10;7.30;;;8.50;99.90;;;;;;5061516;28;20446;-46
2023/04/07 01:11:22;;;;;;;9.80;7.90;;;8.50;99.90;;;;;;5095031;28;20410;-46
2023/04/07 01:13:52;;;;;;;7.77;7.03;;;8.50;99.90;;;;;;5094244;28;20941;-45
2023/04/07 01:16:31;;;;;;;8.40;7.60;;;8.50;99.90;;;;;;5093288;28;20709;-44
2023/04/07 01:19:03;;;;;;;11.17;8.53;;;8.50;99.90;;;;;;5094679;28;20454;-44
2023/04/07 01:21:33;;;;;;;9.87;8.23;;;8.50;99.90;;;;;;5095735;28;20711;-45
2023/04/07 01:24:33;;;;;;;8.80;7.90;;;8.50;99.90;;;;;;5094802;28;20523;-45
2023/04/07 01:27:14;;;;;;;9.20;8.30;;;8.50;99.90;;;;;;5093130;28;20402;-45
2023/04/07 01:29:46;;;;;;;8.63;7.47;;;8.60;99.90;;;;;;5076776;28;20471;-46
2023/04/07 01:32:13;;;;;;;8.53;7.73;;;8.50;99.90;;;;;;5094006;28;20465;-44
2023/04/07 01:34:40;;;;;;;8.20;7.40;;;8.60;99.90;;;;;;5095314;28;20564;-44
2023/04/07 01:37:08;;;;;;;8.30;7.47;;;8.60;99.90;;;;;;5092678;28;20450;-44
2023/04/07 01:39:34;;;;;;;8.03;7.23;;;8.60;99.90;;;;;;5094854;28;20425;-44
2023/04/07 01:42:03;;;;;;;8.40;7.57;;;8.60;99.90;;;;;;5092772;28;20424;-45
2023/04/07 01:44:30;;;;;;;9.90;8.30;;;8.60;99.90;;;;;;5093174;28;20433;-44
2023/04/07 01:46:55;;;;;;;9.17;8.30;;;8.60;94.80;;;;;;5092824;28;20418;-45
2023/04/07 01:49:22;;;;;;;8.60;7.70;;;8.60;93.60;;;;;;5092753;28;20430;-44
2023/04/07 01:51:49;;;;;;;8.07;7.30;;;8.60;81.40;;;;;;5093504;28;20271;-46
2023/04/07 01:57:36;;;;;;;8.30;7.00;;;8.60;1.00;;;;;;5093087;28;20418;-44
2023/04/07 02:00:05;;;;;;;10.63;8.60;;;8.60;1.00;;;;;;5092047;28;20410;-45
2023/04/07 02:02:34;;;;;;;8.10;7.20;;;8.60;1.00;;;;;;5094399;28;20179;-45
2023/04/07 02:05:05;;;;;;;9.80;8.80;;;8.60;1.00;;;;;;5093907;28;20423;-45
2023/04/07 02:07:51;;;;;;;8.40;7.70;;;8.70;1.00;;;;;;5077210;28;20843;-45
2023/04/07 02:10:20;;;;;;;11.47;9.70;;;8.60;1.00;;;;;;5075962;28;20438;-45
2023/04/07 02:12:46;;;;;;;8.90;8.00;;;8.60;1.00;;;;;;5093188;28;20430;-50
2023/04/07 02:15:12;;;;;;;9.73;8.63;;;8.60;1.00;;;;;;5094038;28;20470;-46
2023/04/07 02:17:40;;;;;;;9.73;8.63;;;8.60;1.00;;;;;;5092988;28;20516;-44
2023/04/07 02:20:07;;;;;;;8.40;7.50;;;8.60;1.00;;;;;;5095121;28;20423;-45
2023/04/07 02:22:33;;;;;;;10.10;8.60;;;8.60;1.00;;;;;;5094528;28;20753;-45
2023/04/07 02:24:59;;;;;;;9.03;8.10;;;8.60;1.00;;;;;;5095496;28;20430;-44
2023/04/07 02:27:25;;;;;;;9.80;8.90;;;8.60;1.00;;;;;;5094715;28;20532;-45
2023/04/07 02:29:50;;;;;;;10.83;9.37;;;8.60;10.50;;;;;;5095315;28;20252;-45
2023/04/07 02:32:16;;;;;;;9.67;8.77;;;8.60;63.80;;;;;;5095626;28;20233;-44
2023/04/07 02:34:42;;;;;;;10.90;9.77;;;8.50;99.40;;;;;;5094991;28;20219;-46
2023/04/07 02:37:08;;;;;;;9.93;8.30;;;8.50;99.90;;;;;;5095286;28;20442;-45
2023/04/07 02:39:34;;;;;;;10.40;9.30;;;8.50;99.90;;;;;;5095551;28;20478;-43
2023/04/07 02:41:59;;;;;;;9.53;8.50;;;8.50;99.90;;;;;;5094058;28;20219;-46
2023/04/07 02:44:26;;;;;;;10.63;9.23;;;8.50;99.90;;;;;;5093235;28;20905;-45
2023/04/07 02:46:52;;;;;;;9.27;8.37;;;8.50;99.90;;;;;;5094670;28;20245;-44
2023/04/07 02:49:18;;;;;;;10.73;9.63;;;8.50;99.90;;;;;;5093302;28;21040;-44
2023/04/07 02:51:45;;;;;;;10.60;9.30;;;8.50;99.90;;;;;;5094397;28;20181;-46
2023/04/07 02:54:11;;;;;;;8.33;7.47;;;8.50;99.90;;;;;;5096501;28;20172;-45
2023/04/07 02:56:37;;;;;;;9.20;8.30;;;8.50;94.80;;;;;;5098058;28;20421;-46
2023/04/07 02:59:02;;;;;;;9.00;8.10;;;8.50;83.60;;;;;;5097475;28;20599;-44
2023/04/07 03:01:28;;;;;;;9.83;8.20;;;8.50;62.10;;;;;;5097536;28;20184;-46
2023/04/07 03:03:54;;;;;;;8.83;8.00;;;8.50;63.50;;;;;;5079303;28;20270;-47
2023/04/07 03:06:19;;;;;;;8.83;8.00;;;8.50;29.10;;;;;;5096434;28;20240;-46
2023/04/07 03:08:45;;;;;;;9.47;8.57;;;8.60;17.00;;;;;;5098256;28;20168;-44
2023/04/07 03:11:11;;;;;;;9.30;8.20;;;8.60;9.00;;;;;;5099047;28;20183;-46
2023/04/07 03:13:36;;;;;;;9.47;8.57;;;8.60;1.00;;;;;;5098415;28;20186;-46
2023/04/07 03:16:02;;;;;;;8.60;7.67;;;8.60;1.00;;;;;;5098024;28;20216;-45
2023/04/07 03:18:28;;;;;;;10.13;9.00;;;8.60;1.00;;;;;;5098395;28;20188;-45
2023/04/07 03:20:54;;;;;;;9.90;8.10;;;8.60;1.00;;;;;;5099031;28;20192;-45
2023/04/07 03:23:22;;;;;;;9.10;8.20;;;8.60;1.00;;;;;;5099055;28;20264;-53
2023/04/07 03:25:48;;;;;;;9.37;8.40;;;8.60;1.00;;;;;;5098965;28;20449;-46
2023/04/07 03:28:14;;;;;;;9.93;8.90;;;8.60;1.00;;;;;;5098163;28;20797;-43
2023/04/07 03:30:40;;;;;;;9.33;8.43;;;8.60;1.00;;;;;;5098395;28;20563;-44
2023/04/07 03:33:05;;;;;;;9.47;8.57;;;8.60;1.00;;;;;;5098527;28;20454;-43
2023/04/07 03:35:31;;;;;;;11.30;8.60;;;8.60;1.00;;;;;;5098575;28;20304;-52
2023/04/07 03:37:57;;;;;;;9.53;8.50;;;8.60;1.00;;;;;;5097807;28;20561;-44
2023/04/07 03:40:22;;;;;;;11.70;10.30;;;8.60;1.00;;;;;;5098501;28;20172;-46
2023/04/07 03:42:48;;;;;;;9.40;8.53;;;8.60;1.00;;;;;;5097849;28;20208;-44
2023/04/07 03:45:16;;;;;;;9.50;8.47;;;8.50;1.00;;;;;;5096366;28;20249;-44
2023/04/07 03:47:41;;;;;;;11.20;9.50;;;8.50;1.00;;;;;;5097372;28;20426;-46
2023/04/07 03:50:07;;;;;;;10.20;9.20;;;8.50;1.00;;;;;;5097438;28;20672;-48
2023/04/07 03:52:33;;;;;;;9.63;8.73;;;8.60;1.00;;;;;;5098005;28;20203;-46
2023/04/07 03:54:59;;;;;;;10.67;9.13;;;8.50;1.00;;;;;;5096100;28;20469;-49
2023/04/07 03:57:25;;;;;;;11.50;10.23;;;8.60;1.00;;;;;;5096199;28;20180;-49
2023/04/07 03:59:50;;;;;;;11.90;8.80;;;8.50;1.00;;;;;;5097175;28;20172;-43
2023/04/07 04:02:17;;;;;;;9.63;8.73;;;8.50;1.00;;;;;;5097310;28;20505;-45
2023/04/07 04:04:43;;;;;;;10.63;8.87;;;8.50;1.00;;;;;;5096813;28;20275;-47
2023/04/07 04:07:08;;;;;;;10.20;9.20;;;8.50;1.00;;;;;;5097589;28;20511;-45
2023/04/07 04:09:34;;;;;;;9.93;8.83;;;8.50;16.40;;;;;;5096723;28;20250;-47
2023/04/07 04:12:00;;;;;;;12.10;10.10;;;8.50;17.70;;;;;;5097438;28;20216;-47
2023/04/07 04:14:26;;;;;;;11.57;10.37;;;8.50;14.60;;;;;;5097390;28;20442;-43
2023/04/07 04:16:52;;;;;;;12.17;10.13;;;8.40;27.10;;;;;;5096545;28;20188;-45
2023/04/07 04:19:17;;;;;;;10.40;9.40;;;8.50;19.00;;;;;;5094574;28;20181;-43
2023/04/07 04:21:43;;;;;;;10.83;9.73;;;8.50;14.90;;;;;;5094675;28;20502;-45
2023/04/07 04:24:09;;;;;;;10.83;9.77;;;8.50;1.80;;;;;;5094680;28;20186;-47
2023/04/07 04:26:35;;;;;;;10.83;9.60;;;8.40;1.00;;;;;;5094227;28;20569;-45
2023/04/07 04:29:02;;;;;;;9.87;8.87;;;8.40;1.00;;;;;;5094293;28;20466;-45
2023/04/07 04:31:27;;;;;;;12.27;10.67;;;8.50;1.00;;;;;;5094451;28;20181;-43
2023/04/07 04:33:53;;;;;;;12.07;10.70;;;8.50;1.00;;;;;;5094582;28;20457;-45
2023/04/07 04:36:19;;;;;;;11.80;10.60;;;8.40;1.00;;;;;;5096037;28;20281;-44
2023/04/07 04:38:44;;;;;;;10.80;9.77;;;8.40;1.00;;;;;;5096547;28;20176;-45
2023/04/07 04:41:10;;;;;;;10.97;9.97;;;8.40;1.00;;;;;;5096018;28;20191;-47
2023/04/07 04:43:36;;;;;;;11.20;10.00;;;8.40;1.00;;;;;;5095915;28;20481;-45
2023/04/07 04:46:02;;;;;;;9.63;8.70;;;8.40;1.00;;;;;;5096719;28;20192;-47
2023/04/07 04:48:27;;;;;;;10.70;9.60;;;8.40;1.00;;;;;;5096011;28;20180;-45
2023/04/07 04:50:53;;;;;;;12.90;10.77;;;8.40;1.00;;;;;;5095827;28;20191;-46
2023/04/07 04:53:18;;;;;;;11.53;10.37;;;8.40;1.00;;;;;;5097089;28;20488;-46
2023/04/07 04:55:47;;;;;;;10.70;9.60;;;8.40;1.00;;;;;;5097032;28;20204;-47
2023/04/07 04:58:12;;;;;;;9.33;8.43;;;8.40;1.00;;;;;;5094404;28;20195;-45
2023/04/07 05:00:38;;;;;;;10.17;9.07;;;8.40;1.00;;;;;;5095175;28;20422;-48
2023/04/07 05:03:04;;;;;;;9.43;8.50;;;8.40;1.00;;;;;;5095566;28;20180;-48
2023/04/07 05:05:29;;;;;;;10.73;9.50;;;8.40;1.00;;;;;;5096115;28;20183;-45
2023/04/07 05:07:55;;;;;;;10.87;9.77;;;8.40;1.00;;;;;;5095603;28;20273;-45
2023/04/07 05:10:21;;;;;;;10.80;9.80;;;8.40;1.00;;;;;;5094292;28;20176;-48
2023/04/07 05:12:46;;;;;;;9.27;8.17;;;8.40;1.00;;;;;;5094536;28;20711;-45
2023/04/07 05:15:14;;;;;;;10.70;9.27;;;8.40;1.00;;;;;;5093614;28;20208;-48
2023/04/07 05:17:40;;;;;;;9.03;8.10;;;8.40;1.00;;;;;;5095759;28;20175;-45
2023/04/07 05:20:07;;;;;;;12.23;9.63;;;8.40;1.70;;;;;;5096438;28;20507;-44
2023/04/07 05:22:33;;;;;;;9.73;8.73;;;8.40;10.70;;;;;;5095278;28;20503;-46
2023/04/07 05:24:59;;;;;;;10.47;9.37;;;8.50;11.60;;;;;;5094946;28;20808;-57
2023/04/07 05:27:25;;;;;;;9.93;9.00;;;8.50;15.80;;;;;;5095875;28;20260;-47
2023/04/07 05:29:50;;;;;;;11.00;9.67;;;8.50;24.20;;;;;;5094785;28;20382;-42
2023/04/07 05:32:18;;;;;;;9.90;8.90;;;8.60;24.30;;;;;;5094987;28;20172;-48
2023/04/07 05:34:43;;;;;;;10.53;9.43;;;8.60;21.10;;;;;;5094197;28;20239;-47
2023/04/07 05:37:09;;;;;;;10.80;9.53;;;8.70;13.00;;;;;;5094474;28;20445;-45
2023/04/07 05:39:35;;;;;;;9.60;8.70;;;8.60;7.70;;;;;;5092804;28;20172;-48
2023/04/07 05:42:01;;;;;;;13.43;9.93;;;8.70;3.20;;;;;;5094785;28;20411;-46
2023/04/07 05:44:27;;;;;;;10.83;9.50;;;8.70;1.00;;;;;;5095221;28;20200;-46
2023/04/07 05:46:53;;;;;;;11.50;9.67;;;8.80;1.00;;;;;;5094880;28;20454;-48
2023/04/07 05:49:18;;;;;;;10.00;9.00;;;8.80;1.00;;;;;;5095383;28;20177;-46
2023/04/07 05:51:44;;;;;;;9.80;8.80;;;8.90;1.00;;;;;;5095237;28;20569;-49
2023/04/07 05:54:10;;;;;;;9.87;8.87;;;8.90;1.00;;;;;;5095345;28;20173;-47
2023/04/07 05:56:36;;;;;;;9.80;8.93;;;9.00;1.00;;;;;;5095765;28;20458;-46
2023/04/07 05:59:02;;;;;;;9.53;8.60;;;9.00;1.00;;;;;;5095136;28;20426;-45
2023/04/07 06:01:28;;;;;;;12.23;10.03;;;9.10;1.00;;;;;;5094910;28;20183;-46
2023/04/07 06:03:54;;;;;;;9.83;8.93;;;9.20;1.00;;;;;;5094529;28;20249;-47
2023/04/07 06:06:20;;;;;;;12.10;9.63;;;9.30;1.00;;;;;;5094918;28;20422;-46
2023/04/07 06:08:46;;;;;;;10.20;9.13;;;9.30;1.00;;;;;;5094308;28;20418;-44
2023/04/07 06:11:11;;;;;;;9.57;8.53;;;9.40;1.00;;;;;;5094345;28;20302;-44
2023/04/07 06:13:37;;;;;;;10.37;9.33;;;9.50;1.00;;;;;;5093742;28;20425;-44
2023/04/07 06:16:03;;;;;;;10.07;9.07;;;9.60;99.90;;;;;;5094024;28;20250;-45
2023/04/07 06:18:29;;;;;;;11.10;10.00;;;9.60;99.90;;;;;;5094244;28;20256;-45
2023/04/07 06:20:55;;;;;;;9.27;8.37;;;9.80;99.90;;;;;;5094043;28;20883;-48
2023/04/07 06:23:21;;;;;;;10.60;9.37;;;9.90;99.90;;;;;;5093825;28;20175;-43
2023/04/07 06:25:52;;;;;;;10.90;9.30;;;9.90;99.90;;;;;;5095538;28;20503;-45
2023/04/07 06:28:18;;;;;;;9.23;8.37;;;10.00;99.90;;;;;;5096777;28;20176;-46
2023/04/07 06:30:43;;;;;;;9.70;8.67;;;10.10;99.90;;;;;;5099213;28;20433;-45
2023/04/07 06:33:09;;;;;;;11.20;10.10;;;10.20;99.90;;;;;;5098888;28;20680;-45
2023/04/07 06:35:35;;;;;;;9.43;8.33;;;10.40;99.90;;;;;;5096709;28;20233;-43
2023/04/07 06:38:01;;;;;;;11.87;9.80;;;10.50;77.00;;;;;;5099280;28;20445;-46
2023/04/07 06:40:27;;;;;;;11.23;10.17;;;10.60;37.70;;;;;;5099824;28;20445;-46
2023/04/07 06:42:53;;;;;;;11.60;10.50;;;10.70;20.10;;;;;;5098962;28;20177;-45
2023/04/07 06:45:19;;;;;;;10.90;9.73;;;10.80;1.00;;;;;;5097810;28;20558;-43
2023/04/07 06:47:45;;;;;;;10.57;9.57;;;10.80;1.00;;;;;;5096489;28;20469;-44
2023/04/07 06:50:10;;;;;;;11.53;10.43;;;10.90;1.00;;;;;;5096357;28;20498;-45
2023/04/07 06:52:36;;;;;;;11.20;10.10;;;11.00;1.00;;;;;;5094422;28;20537;-44
2023/04/07 06:55:02;;;;;;;11.23;9.00;;;11.10;1.00;;;;;;5096668;28;20208;-45
2023/04/07 06:57:28;;;;;;;10.07;9.07;;;11.20;1.00;;;;;;5096953;28;20264;-44
2023/04/07 06:59:53;;;;;;;9.37;8.37;;;11.30;1.00;;;;;;5096470;28;20865;-44
2023/04/07 07:02:19;;;;;;;9.93;8.37;;;11.40;1.00;;;;;;5096400;28;20642;-44
2023/04/07 07:04:45;;;;;;;10.17;8.30;;;11.60;1.00;;;;;;5095620;28;20546;-46
2023/04/07 07:07:11;;;;;;;8.67;7.87;;;11.70;1.00;;;;;;5095531;28;20177;-46
2023/04/07 07:09:36;;;;;;;8.90;8.00;;;11.90;1.00;;;;;;5097661;28;20271;-43
2023/04/07 07:12:02;;;;;;;8.40;7.60;;;12.00;1.00;;;;;;5096886;28;20418;-47
2023/04/07 07:14:28;;;;;;;9.47;8.47;;;12.20;1.00;;;;;;5097038;28;20174;-44
2023/04/07 07:16:53;;;;;;;8.87;7.47;;;12.40;1.00;;;;;;5095973;28;20216;-46
2023/04/07 07:19:19;;;;;;;9.30;8.50;;;12.50;1.00;;;;;;5095662;28;20261;-43
2023/04/07 07:21:45;;;;;;;9.20;8.30;;;12.60;1.00;;;;;;5096046;28;20176;-45
2023/04/07 07:24:10;;;;;;;7.23;6.53;;;12.60;1.00;;;;;;5096666;28;20191;-45
2023/04/07 07:26:36;;;;;;;9.47;8.47;;;12.60;1.00;;;;;;5095112;28;20238;-45
2023/04/07 07:29:02;;;;;;;8.87;8.07;;;12.60;1.00;;;;;;5095731;28;20224;-46
2023/04/07 07:31:27;;;;;;;9.00;8.17;;;12.60;1.00;;;;;;5096910;28;20195;-45
2023/04/07 07:33:53;;;;;;;9.20;8.30;;;12.70;1.00;;;;;;5097014;28;20172;-46
2023/04/07 07:36:19;;;;;;;8.37;7.57;;;12.70;1.00;;;;;;5094440;28;20264;-44
2023/04/07 07:38:44;;;;;;;8.87;7.97;;;13.00;1.00;;;;;;5094054;28;20241;-45
2023/04/07 07:41:10;;;;;;;6.97;6.37;;;13.40;1.00;;;;;;5095861;28;20415;-43
2023/04/07 07:43:36;;;;;;;7.50;6.80;;;13.80;1.00;;;;;;5095359;28;20211;-44
2023/04/07 07:46:02;;;;;;;7.20;6.60;;;14.30;1.00;;;;;;5095136;28;20176;-48
2023/04/07 07:48:28;;;;;;;6.53;5.93;;;14.90;1.00;;;;;;5095578;28;20531;-45
2023/04/07 07:50:55;;;;;;;7.83;6.60;;;15.60;1.00;;;;;;5094958;28;20551;-45
2023/04/07 07:53:21;;;;;;;7.10;6.40;;;16.50;1.00;;;;;;5095027;28;20184;-43
2023/04/07 07:55:47;;;;;;;7.83;6.93;;;17.50;1.00;;;;;;5092356;28;20462;-44
2023/04/07 07:58:13;;;;;;;9.37;6.80;;;18.50;1.00;;;;;;5092389;28;20476;-42
2023/04/07 08:00:38;;;;;;;7.47;6.80;;;19.40;1.00;;;;;;5095399;28;20329;-43
2023/04/07 08:03:04;;;;;;;7.30;5.50;;;20.30;1.00;;;;;;5096145;28;20579;-44
2023/04/07 08:05:30;;;;;;;6.10;5.60;;;21.30;1.00;;;;;;5095138;28;20279;-43
2023/04/07 08:07:56;;;;;;;6.27;5.77;;;22.20;1.00;;;;;;5096485;28;20184;-44
2023/04/07 08:10:23;;;;;;;7.43;5.40;;;23.20;1.00;;;;;;5097652;28;20953;-45
2023/04/07 08:12:49;;;;;;;5.37;4.80;;;24.00;1.00;;;;;;5096319;28;20458;-45
2023/04/07 08:15:15;;;;;;;6.93;5.73;;;24.60;1.00;;;;;;5096694;28;20473;-45
2023/04/07 08:17:41;;;;;;;6.53;6.03;;;25.00;1.00;;;;;;5095688;28;20488;-46
2023/04/07 08:20:07;;;;;;;8.00;5.40;;;25.40;99.90;;;;;;5095690;28;20192;-43
2023/04/07 08:22:33;;;;;;;13.90;4.63;;;26.00;99.90;;;;;;5095742;28;20180;-45
2023/04/07 08:24:58;;;;;;;6.20;4.90;;;26.80;99.90;;;;;;5093798;28;20542;-45
2023/04/07 08:27:24;;;;;;;4.90;4.23;;;27.50;99.90;;;;;;5093570;28;20195;-45
2023/04/07 08:30:05;;;;;;;6.87;5.47;;;28.10;99.90;;;;;;5093445;28;20300;-44
2023/04/07 08:32:42;;;;;;;5.80;4.80;;;28.20;99.90;;;;;;5092351;28;20331;-43
2023/04/07 08:35:08;;;;;;;5.37;4.80;;;28.20;99.90;;;;;;5092982;28;20732;-43
2023/04/07 08:37:34;;;;;;;6.47;5.53;;;28.30;99.90;;;;;;5093995;28;20519;-44
2023/04/07 08:40:00;;;;;;;9.27;7.60;;;28.30;99.90;;;;;;5093751;28;20180;-48
2023/04/07 08:42:28;;;;;;;8.33;6.80;;;28.00;99.90;;;;;;5090333;28;20716;-45
2023/04/07 08:45:02;;;;;;;9.07;5.70;;;27.10;99.90;;;;;;5091927;28;20840;-45
2023/04/07 08:47:30;;;;;;;7.47;6.03;;;26.10;99.90;;;;;;5093823;28;20494;-45
2023/04/07 08:50:00;;;;;;;5.60;5.10;;;25.30;99.90;;;;;;5093929;28;20438;-43
2023/04/07 08:52:52;;;;;;;6.07;3.00;;;24.70;99.90;;;;;;5090532;28;20461;-43
2023/04/07 08:55:18;;;;;;;5.07;4.57;;;24.10;99.90;;;;;;5093164;28;20469;-48
2023/04/07 08:57:45;;;;;;;8.63;7.10;;;23.80;99.90;;;;;;5094945;28;20408;-47
2023/04/07 09:00:11;;;;;;;8.00;7.20;;;24.10;99.90;;;;;;5092329;28;20173;-44
2023/04/07 09:02:44;;;;;;;5.63;4.90;;;24.70;99.90;;;;;;5094500;28;20513;-43
2023/04/07 09:05:13;;;;;;;8.10;4.20;;;25.00;99.90;;;;;;5094702;28;20442;-47
2023/04/07 09:07:39;;;;;;;5.30;4.80;;;25.10;99.90;;;;;;5093598;28;20393;-46
2023/04/07 09:10:06;;;;;;;4.63;4.03;;;25.00;99.90;;;;;;5093084;28;20427;-44
2023/04/07 09:12:32;;;;;;;5.20;4.30;;;24.60;99.90;;;;;;5092268;28;20440;-44
2023/04/07 09:14:58;;;;;;;5.30;4.03;;;24.30;99.90;;;;;;5094935;28;20548;-48
2023/04/07 09:17:28;;;;;;;6.60;3.80;;;24.10;99.90;;;;;;5093962;28;20534;-45
2023/04/07 09:19:58;;;;;;;5.60;3.80;;;24.60;99.90;;;;;;5094011;28;20565;-44
2023/04/07 09:22:33;;;;;;;6.90;3.33;;;25.70;99.90;;;;;;5093038;28;20442;-44
2023/04/07 09:25:14;;;;;;;5.37;4.40;;;26.50;99.90;;;;;;5094613;28;20414;-44
2023/04/07 09:27:40;;;;;;;5.20;4.23;;;26.60;99.90;;;;;;5096008;28;20426;-47
2023/04/07 09:30:16;;;;;;;5.90;4.37;;;27.20;99.90;;;;;;5095843;28;20477;-45
2023/04/07 09:32:42;;;;;;;4.63;3.60;;;28.10;99.90;;;;;;5094496;28;20397;-43
2023/04/07 09:35:08;;;;;;;4.73;4.23;;;28.50;1.00;;;;;;5094055;28;20496;-45
2023/04/07 09:37:33;;;;;;;4.43;3.77;;;28.00;99.90;;;;;;5094712;28;20195;-44
2023/04/07 09:40:00;;;;;;;8.17;5.17;;;27.80;99.90;;;;;;5092961;28;20410;-47
2023/04/07 09:42:31;;;;;;;5.37;3.90;;;27.30;99.90;;;;;;5093263;28;20255;-47
2023/04/07 09:44:58;;;;;;;3.07;2.77;;;27.10;99.90;;;;;;5094042;28;20532;-45
2023/04/07 09:47:30;;;;;;;5.97;3.20;;;27.40;99.90;;;;;;5093642;28;20542;-45
2023/04/07 09:49:58;;;;;;;4.70;2.73;;;27.20;99.90;;;;;;5092906;28;20794;-45
2023/04/07 09:52:47;;;;;;;6.33;3.60;;;27.10;99.90;;;;;;5093331;28;20922;-48
2023/04/07 09:55:13;;;;;;;5.10;2.90;;;26.90;99.90;;;;;;5081568;28;20751;-45
2023/04/07 09:57:40;;;;;;;6.03;2.80;;;26.70;99.90;;;;;;5093794;28;20427;-49
2023/04/07 10:00:06;;;;;;;3.50;2.87;;;26.30;99.90;;;;;;5093226;28;20396;-48
2023/04/07 10:02:32;;;;;;;3.70;2.53;;;25.90;99.90;;;;;;5091174;28;20442;-45
2023/04/07 10:04:58;;;;;;;3.30;3.00;;;25.40;99.90;;;;;;5093545;28;20422;-44
2023/04/07 10:07:25;;;;;;;4.57;2.93;;;25.20;99.90;;;;;;5094651;28;20263;-45
2023/04/07 10:09:51;;;;;;;3.33;2.80;;;25.10;99.90;;;;;;5092915;28;21037;-43
2023/04/07 10:12:17;;;;;;;3.43;3.07;;;25.10;99.90;;;;;;5091471;28;20612;-46
2023/04/07 10:14:45;;;;;;;3.23;2.93;;;25.10;99.90;;;;;;5093583;28;20527;-42
2023/04/07 10:17:17;;;;;;;5.60;3.20;;;25.40;99.90;;;;;;5093953;28;20492;-47
2023/04/07 10:19:44;;;;;;;3.80;3.17;;;25.40;99.90;;;;;;5092789;28;20462;-43
2023/04/07 10:22:09;;;;;;;6.20;3.40;;;25.20;99.90;;;;;;5091124;28;20472;-45
2023/04/07 10:25:05;;;;;;;3.33;2.77;;;24.90;99.90;;;;;;5074221;28;20677;-43
2023/04/07 10:27:34;;;;;;;3.73;3.30;;;24.30;99.90;;;;;;5089380;28;20681;-45
2023/04/07 10:30:03;;;;;;;4.57;3.40;;;23.80;99.90;;;;;;5089794;28;20815;-44
2023/04/07 10:32:29;;;;;;;2.70;2.50;;;23.30;99.90;;;;;;5089333;28;20422;-42
2023/04/07 10:34:57;;;;;;;4.87;2.77;;;22.70;99.90;;;;;;5088504;28;20458;-45
2023/04/07 10:37:23;;;;;;;3.03;2.63;;;22.20;99.90;;;;;;5089094;28;20422;-43
2023/04/07 10:39:50;;;;;;;3.00;2.50;;;21.80;99.90;;;;;;5091898;28;20769;-45
2023/04/07 10:42:37;;;;;;;4.13;2.43;;;21.30;99.90;;;;;;5088434;28;20568;-45
2023/04/07 10:45:08;;;;;;;3.50;2.60;;;20.90;99.90;;;;;;5090157;28;20394;-43
2023/04/07 10:47:35;;;;;;;3.37;2.23;;;20.60;99.90;;;;;;5091631;28;20437;-44
2023/04/07 10:50:22;;;;;;;3.60;2.50;;;20.30;99.90;;;;;;5090790;28;20769;-46
2023/04/07 10:53:00;;;;;;;4.60;2.90;;;20.00;99.90;;;;;;5091100;28;20466;-46
2023/04/07 10:55:36;;;;;;;3.60;2.90;;;19.80;99.90;;;;;;5090565;28;20462;-47
2023/04/07 10:58:20;;;;;;;10.23;4.30;;;19.60;99.90;;;;;;5092971;28;20426;-46
2023/04/07 11:01:04;;;;;;;4.60;3.03;;;19.30;99.90;;;;;;5091252;28;20811;-45
2023/04/07 11:03:33;;;;;;;4.50;4.10;;;19.00;99.90;;;;;;5091296;28;20414;-44
2023/04/07 11:06:07;;;;;;;3.63;3.00;;;18.80;99.90;;;;;;5088838;28;20726;-46
2023/04/07 11:08:43;;;;;;;4.43;2.73;;;18.60;99.90;;;;;;5092004;28;20486;-45
2023/04/07 11:11:11;;;;;;;4.20;2.30;;;18.50;99.90;;;;;;5090818;28;20403;-44
2023/04/07 11:13:40;;;;;;;3.50;2.37;;;18.40;99.90;;;;;;5091070;28;20422;-44
2023/04/07 11:16:06;;;;;;;3.40;2.20;;;18.30;99.90;;;;;;5095375;28;20450;-42
2023/04/07 11:18:32;;;;;;;4.80;2.90;;;18.10;99.90;;;;;;5096721;28;20477;-44
2023/04/07 11:20:58;;;;;;;5.07;3.53;;;17.90;99.90;;;;;;5095534;28;20487;-46
2023/04/07 11:23:25;;;;;;;3.63;3.00;;;17.80;99.90;;;;;;5094518;28;20275;-46
2023/04/07 11:26:01;;;;;;;4.50;2.53;;;17.60;99.90;;;;;;5092600;28;20425;-45
2023/04/07 11:28:28;;;;;;;5.63;2.93;;;17.40;99.90;;;;;;5094186;28;20426;-44
2023/04/07 11:30:55;;;;;;;3.13;2.40;;;17.20;99.90;;;;;;5094364;28;20415;-43
2023/04/07 11:33:26;;;;;;;3.20;2.90;;;17.00;99.90;;;;;;5094966;28;20638;-46
2023/04/07 11:36:00;;;;;;;3.97;2.77;;;16.90;99.90;;;;;;5095806;28;20522;-47
2023/04/07 11:38:29;;;;;;;3.57;2.30;;;16.70;99.90;;;;;;5094801;28;20525;-45
2023/04/07 11:40:55;;;;;;;2.80;2.50;;;16.60;99.90;;;;;;5093090;28;20434;-46
2023/04/07 11:43:26;;;;;;;2.83;2.30;;;16.50;99.90;;;;;;5095147;28;20501;-46
2023/04/07 11:46:15;;;;;;;2.93;2.30;;;16.40;99.90;;;;;;5094346;28;20433;-45
2023/04/07 11:48:42;;;;;;;2.93;2.40;;;16.30;99.90;;;;;;5092890;28;20513;-43
2023/04/07 11:51:18;;;;;;;3.30;2.43;;;16.30;99.90;;;;;;5094150;28;20406;-45
2023/04/07 11:53:45;;;;;;;5.50;2.87;;;16.20;99.90;;;;;;5093345;28;20449;-46
2023/04/07 11:56:17;;;;;;;3.13;2.57;;;16.10;99.90;;;;;;5095510;28;20523;-44
2023/04/07 11:58:50;;;;;;;3.60;2.17;;;16.10;99.90;;;;;;5096006;28;20422;-44
2023/04/07 12:01:15;;;;;;;2.60;2.20;;;16.10;99.90;;;;;;5095696;28;20480;-47
2023/04/07 12:03:58;;;;;;;3.00;2.23;;;16.10;99.90;;;;;;5095088;28;20446;-45
2023/04/07 12:06:37;;;;;;;3.77;2.10;;;16.20;99.90;;;;;;5097806;28;20410;-44
2023/04/07 12:09:04;;;;;;;4.40;2.60;;;16.20;99.90;;;;;;5095687;28;20486;-48
2023/04/07 12:11:30;;;;;;;3.30;2.57;;;16.20;99.90;;;;;;5093669;28;20687;-44
2023/04/07 12:13:56;;;;;;;3.00;2.40;;;16.20;99.90;;;;;;5093655;28;20434;-45
2023/04/07 12:16:22;;;;;;;3.87;2.60;;;16.20;99.90;;;;;;5093124;28;20449;-46
2023/04/07 12:18:50;;;;;;;4.30;3.00;;;16.10;1.00;;;;;;5093621;28;20277;-45
2023/04/07 12:21:16;;;;;;;4.67;3.10;;;16.00;1.00;;;;;;5093909;28;20655;-44
2023/04/07 12:23:42;;;;;;;4.20;3.60;;;15.90;1.00;;;;;;5094492;28;20437;-45
2023/04/07 12:26:08;;;;;;;4.87;3.47;;;15.90;1.00;;;;;;5093225;28;20795;-44
2023/04/07 12:28:33;;;;;;;5.00;3.37;;;15.90;1.00;;;;;;5095042;28;20292;-45
2023/04/07 12:30:59;;;;;;;4.17;3.40;;;16.00;1.00;;;;;;5095706;28;20417;-47
2023/04/07 12:33:24;;;;;;;3.77;3.27;;;16.20;1.00;;;;;;5094289;28;20191;-43
2023/04/07 12:35:51;;;;;;;5.77;2.73;;;16.40;1.00;;;;;;5093586;28;20244;-44
2023/04/07 12:38:16;;;;;;;5.07;3.40;;;16.60;1.00;;;;;;5094711;28;20618;-43
2023/04/07 12:40:42;;;;;;;5.60;4.53;;;16.70;1.00;;;;;;5094566;28;20561;-45
2023/04/07 12:43:08;;;;;;;5.30;4.13;;;16.90;1.00;;;;;;5094105;28;20470;-44
2023/04/07 12:45:35;;;;;;;5.33;4.83;;;17.00;1.00;;;;;;5090975;28;20427;-44
2023/04/07 12:48:01;;;;;;;6.33;5.10;;;17.10;1.00;;;;;;5093487;28;20469;-43
2023/04/07 12:50:29;;;;;;;8.67;6.60;;;17.00;1.00;;;;;;5094353;28;20410;-43
2023/04/07 12:52:57;;;;;;;7.83;6.43;;;16.90;1.00;;;;;;5093453;28;20724;-43
2023/04/07 12:55:25;;;;;;;6.63;5.70;;;16.70;1.00;;;;;;5092613;28;20483;-46
2023/04/07 12:57:51;;;;;;;5.67;4.77;;;16.60;1.00;;;;;;5095072;28;20714;-44
2023/04/07 13:00:16;;;;;;;5.00;4.10;;;16.40;1.00;;;;;;5093901;28;20441;-44